Time;durP1;ratioP1;P1;durP2;ratioP2;P2;SDS_P1;SDS_P2;PMS_P1;PMS_P2;Temp;Humidity;BMP_temperature;BMP_pressure;BME280_temperature;BME280_humidity;BME280_pressure;Samples;Min_cycle;Max_cycle;Signal;HPM_P1;HPM_P2
2023/11/19 00:00:20;;;;;;;29.20;15.50;;;;;;;1.47;78.74;99667.25;108257;1257;107299;-71
2023/11/19 00:03:08;;;;;;;27.50;14.40;;;;;;;1.44;78.98;99662.80;108306;1257;94325;-72
2023/11/19 00:05:36;;;;;;;29.00;15.00;;;;;;;1.41;78.67;99659.41;108347;1257;94302;-71
2023/11/19 00:08:05;;;;;;;27.70;14.10;;;;;;;1.40;78.97;99654.02;108266;1257;110595;-71
2023/11/19 00:10:33;;;;;;;28.70;14.90;;;;;;;1.39;79.20;99651.59;108298;1258;95171;-71
2023/11/19 00:13:02;;;;;;;28.60;15.80;;;;;;;1.39;78.90;99648.09;108282;1257;107671;-71
2023/11/19 00:15:30;;;;;;;26.50;14.70;;;;;;;1.40;78.91;99643.86;108232;1257;94341;-71
2023/11/19 00:17:58;;;;;;;30.30;15.60;;;;;;;1.40;78.99;99644.05;108318;1257;94543;-71
2023/11/19 00:20:29;;;;;;;26.60;13.00;;;;;;;1.39;78.85;99651.06;108302;1257;109558;-71
2023/11/19 00:22:57;;;;;;;29.20;14.20;;;;;;;1.39;79.19;99648.96;108326;1257;95466;-71
2023/11/19 00:25:25;;;;;;;27.90;14.80;;;;;;;1.40;78.99;99650.52;108278;1257;107702;-71
2023/11/19 00:27:53;;;;;;;26.10;13.40;;;;;;;1.39;78.68;99654.20;108270;1257;94738;-71
2023/11/19 00:30:21;;;;;;;27.80;14.10;;;;;;;1.38;78.90;99651.95;108328;1257;94501;-71
2023/11/19 00:32:49;;;;;;;26.60;13.50;;;;;;;1.42;79.20;99656.58;108314;1257;109991;-72
2023/11/19 00:35:17;;;;;;;30.40;16.40;;;;;;;1.47;79.10;99658.17;108328;1257;95995;-71
2023/11/19 00:37:49;;;;;;;31.30;16.80;;;;;;;1.48;78.84;99655.00;108267;1257;107071;-71
2023/11/19 00:40:18;;;;;;;28.50;16.00;;;;;;;1.52;78.95;99654.04;108322;1256;94321;-72
2023/11/19 00:42:46;;;;;;;29.40;14.80;;;;;;;1.52;78.84;99653.85;108289;1256;94603;-71
2023/11/19 00:45:14;;;;;;;28.30;14.70;;;;;;;1.52;78.94;99655.80;108290;1257;111610;-71
2023/11/19 00:47:42;;;;;;;28.60;14.50;;;;;;;1.52;79.01;99652.81;108292;1257;95579;-72
2023/11/19 00:50:11;;;;;;;25.90;13.20;;;;;;;1.56;79.05;99651.48;108255;1256;106440;-72
2023/11/19 00:52:39;;;;;;;27.10;14.90;;;;;;;1.58;78.89;99653.00;108229;1258;94293;-71
2023/11/19 00:55:07;;;;;;;25.80;13.30;;;;;;;1.58;78.85;99651.27;108286;1257;94337;-71
2023/11/19 00:57:36;;;;;;;26.10;13.70;;;;;;;1.57;78.79;99639.73;108213;1256;109915;-71
2023/11/19 01:00:24;;;;;;;27.80;13.00;;;;;;;1.57;79.07;99636.95;108256;1257;94527;-71
2023/11/19 01:02:51;;;;;;;27.90;14.10;;;;;;;1.62;79.08;99635.95;108268;1256;107916;-71
2023/11/19 01:05:24;;;;;;;26.40;13.80;;;;;;;1.61;78.87;99628.29;108264;1257;94443;-71
2023/11/19 01:07:53;;;;;;;27.70;13.50;;;;;;;1.61;78.99;99621.63;108274;1257;94637;-71
2023/11/19 01:10:22;;;;;;;26.40;13.90;;;;;;;1.63;78.76;99614.04;108315;1257;110004;-71
2023/11/19 01:12:50;;;;;;;27.60;13.40;;;;;;;1.66;78.78;99613.11;108301;1257;96140;-71
2023/11/19 01:15:18;;;;;;;27.10;13.70;;;;;;;1.66;79.07;99620.79;108318;1257;107211;-72
2023/11/19 01:17:47;;;;;;;27.60;14.40;;;;;;;1.66;79.10;99630.23;108291;1256;94379;-72
2023/11/19 01:20:17;;;;;;;27.10;14.50;;;;;;;1.65;78.87;99632.00;108305;1257;94254;-72
2023/11/19 01:22:45;;;;;;;27.30;13.70;;;;;;;1.67;78.94;99627.77;108243;1257;109903;-71
2023/11/19 01:25:13;;;;;;;28.00;14.80;;;;;;;1.67;78.82;99623.39;108339;1256;95587;-72
2023/11/19 01:27:41;;;;;;;27.60;15.30;;;;;;;1.68;78.74;99625.30;108278;1257;107647;-71
2023/11/19 01:30:12;;;;;;;28.20;15.80;;;;;;;1.68;78.96;99618.64;108301;1257;95292;-71
2023/11/19 01:32:41;;;;;;;27.50;15.20;;;;;;;1.65;78.64;99611.75;108318;1256;94372;-71
2023/11/19 01:35:09;;;;;;;27.50;14.80;;;;;;;1.63;78.74;99604.27;108372;1256;109976;-71
2023/11/19 01:37:36;;;;;;;26.50;13.20;;;;;;;1.61;78.74;99598.73;108286;1257;95640;-72
2023/11/19 01:40:06;;;;;;;28.30;14.30;;;;;;;1.59;78.76;99586.02;108248;1256;107653;-71
2023/11/19 01:42:38;;;;;;;28.10;13.90;;;;;;;1.60;78.83;99581.98;108313;1257;94514;-71
2023/11/19 01:45:10;;;;;;;28.70;15.40;;;;;;;1.59;78.79;99576.77;108368;1256;94381;-71
2023/11/19 01:47:39;;;;;;;31.30;14.90;;;;;;;1.57;78.70;99559.52;108307;1257;108282;-71
2023/11/19 01:50:08;;;;;;;25.70;13.20;;;;;;;1.57;78.70;99554.27;108335;1257;95538;-72
2023/11/19 01:52:37;;;;;;;26.70;14.00;;;;;;;1.58;78.81;99554.77;108279;1256;107681;-71
2023/11/19 01:55:09;;;;;;;25.50;13.00;;;;;;;1.57;78.86;99554.61;108233;1259;94302;-71
2023/11/19 01:57:38;;;;;;;26.90;14.00;;;;;;;1.60;78.99;99553.12;108385;1257;94250;-71
2023/11/19 02:00:11;;;;;;;28.50;15.30;;;;;;;1.63;78.78;99555.33;108312;1257;108502;-71
2023/11/19 02:02:44;;;;;;;27.90;14.40;;;;;;;1.63;78.89;99555.67;108268;1256;94288;-72
2023/11/19 02:05:13;;;;;;;29.10;14.40;;;;;;;1.64;78.89;99554.06;108335;1257;109773;-70
2023/11/19 02:07:41;;;;;;;27.80;15.40;;;;;;;1.68;78.83;99556.59;108295;1256;94359;-71
2023/11/19 02:10:13;;;;;;;27.40;14.10;;;;;;;1.73;79.03;99551.36;108342;1257;94306;-70
2023/11/19 02:12:44;;;;;;;25.30;13.60;;;;;;;1.75;79.05;99542.40;108327;1257;109931;-70
2023/11/19 02:15:12;;;;;;;27.30;13.80;;;;;;;1.76;79.06;99540.61;108352;1257;95540;-70
2023/11/19 02:17:40;;;;;;;25.50;12.20;;;;;;;1.79;78.89;99536.33;108251;1257;107723;-70
2023/11/19 02:20:11;;;;;;;24.60;13.30;;;;;;;1.82;78.86;99531.38;108310;1257;94273;-71
2023/11/19 02:22:40;;;;;;;24.90;12.90;;;;;;;1.84;78.63;99536.71;108388;1257;94247;-71
2023/11/19 02:25:29;;;;;;;26.10;13.50;;;;;;;1.87;79.19;99538.20;108315;1257;109698;-70
2023/11/19 02:28:00;;;;;;;28.30;14.30;;;;;;;1.86;78.97;99531.59;108293;1257;94623;-70
2023/11/19 02:30:28;;;;;;;27.80;14.50;;;;;;;1.85;78.99;99526.37;108364;1256;107661;-70
2023/11/19 02:32:58;;;;;;;27.00;14.10;;;;;;;1.86;78.63;99524.06;108285;1256;94760;-70
2023/11/19 02:35:26;;;;;;;28.50;14.70;;;;;;;1.86;78.99;99514.79;108296;1257;94472;-70
2023/11/19 02:37:54;;;;;;;27.90;15.40;;;;;;;1.88;78.92;99515.95;108294;1257;109550;-70
2023/11/19 02:40:24;;;;;;;27.50;14.50;;;;;;;1.89;79.07;99526.58;108312;1257;95474;-70
2023/11/19 02:42:54;;;;;;;28.90;15.50;;;;;;;1.88;78.85;99523.99;108246;1258;107252;-71
2023/11/19 02:45:23;;;;;;;31.70;15.30;;;;;;;1.89;79.11;99521.52;108287;1257;94526;-70
2023/11/19 02:47:52;;;;;;;29.80;15.40;;;;;;;1.92;78.99;99509.36;108278;1257;94597;-70
2023/11/19 02:50:24;;;;;;;29.40;15.90;;;;;;;1.93;78.93;99501.83;108371;1257;109891;-70
2023/11/19 02:52:56;;;;;;;25.30;14.10;;;;;;;1.93;78.98;99500.40;108323;1256;95461;-71
2023/11/19 02:55:25;;;;;;;29.10;14.90;;;;;;;1.94;78.91;99493.58;108264;1256;108399;-71
2023/11/19 02:57:53;;;;;;;28.90;15.40;;;;;;;1.94;79.01;99486.05;108264;1257;94600;-71
2023/11/19 03:00:34;;;;;;;27.90;14.70;;;;;;;1.93;78.83;99490.29;108291;1257;94374;-70
2023/11/19 03:03:20;;;;;;;27.70;15.50;;;;;;;1.91;78.74;99491.89;108312;1256;109664;-70
2023/11/19 03:05:49;;;;;;;28.10;14.50;;;;;;;1.91;78.91;99485.78;108263;1257;95550;-71
2023/11/19 03:08:17;;;;;;;26.50;14.40;;;;;;;1.92;78.92;99479.11;108236;1257;107636;-70
2023/11/19 03:10:48;;;;;;;28.10;15.10;;;;;;;1.93;79.00;99480.11;108328;1257;94294;-70
2023/11/19 03:13:19;;;;;;;29.00;14.90;;;;;;;1.95;79.20;99482.88;108271;1262;94360;-70
2023/11/19 03:15:47;;;;;;;29.30;14.40;;;;;;;1.96;79.17;99479.70;108360;1256;109486;-70
2023/11/19 03:18:15;;;;;;;29.10;14.80;;;;;;;1.97;78.86;99473.70;108183;1257;95524;-70
2023/11/19 03:20:43;;;;;;;24.50;13.20;;;;;;;1.96;78.70;99469.73;108331;1256;107360;-70
2023/11/19 03:23:11;;;;;;;24.40;13.50;;;;;;;1.96;78.67;99469.36;108291;1256;94381;-71
2023/11/19 03:25:39;;;;;;;26.60;14.40;;;;;;;1.97;78.71;99468.99;108353;1257;94314;-71
2023/11/19 03:28:07;;;;;;;28.70;15.40;;;;;;;1.98;78.92;99462.84;108309;1257;111424;-71
2023/11/19 03:30:35;;;;;;;29.70;15.40;;;;;;;1.99;79.08;99455.48;108331;1256;96173;-71
2023/11/19 03:33:02;;;;;;;26.60;14.30;;;;;;;1.99;79.05;99450.73;108315;1256;107734;-71
2023/11/19 03:35:31;;;;;;;27.30;14.50;;;;;;;2.00;78.95;99453.67;108295;1258;94377;-72
2023/11/19 03:37:58;;;;;;;28.80;14.90;;;;;;;1.98;78.75;99456.04;108350;1256;94402;-71
2023/11/19 03:40:26;;;;;;;29.50;15.10;;;;;;;1.93;78.59;99453.54;108258;1256;109605;-71
2023/11/19 03:42:58;;;;;;;30.80;15.40;;;;;;;1.94;78.90;99447.38;108388;1257;95393;-71
2023/11/19 03:45:26;;;;;;;32.30;16.40;;;;;;;1.97;79.09;99438.58;108310;1256;108108;-71
2023/11/19 03:47:53;;;;;;;34.80;17.70;;;;;;;1.96;78.81;99428.64;108363;1257;95058;-71
2023/11/19 03:50:21;;;;;;;36.80;18.10;;;;;;;1.93;78.68;99425.20;108344;1256;94326;-72
2023/11/19 03:52:49;;;;;;;32.30;16.80;;;;;;;1.92;78.99;99425.23;108395;1257;109415;-71
2023/11/19 03:55:17;;;;;;;30.50;16.40;;;;;;;1.94;79.15;99420.45;108258;1257;95528;-72
2023/11/19 03:57:47;;;;;;;32.00;16.60;;;;;;;1.95;78.78;99416.06;108248;1256;107294;-71
2023/11/19 04:00:15;;;;;;;30.20;17.00;;;;;;;1.96;78.55;99419.87;108325;1256;94385;-72
2023/11/19 04:02:43;;;;;;;34.90;18.50;;;;;;;1.94;78.93;99419.95;108358;1256;94588;-71
2023/11/19 04:05:11;;;;;;;33.80;18.40;;;;;;;1.93;78.87;99414.71;108271;1257;110475;-71
2023/11/19 04:07:39;;;;;;;32.80;17.00;;;;;;;1.91;78.50;99411.62;108361;1257;96135;-71
2023/11/19 04:10:07;;;;;;;31.10;16.30;;;;;;;1.92;78.69;99402.84;108316;1256;107714;-71
2023/11/19 04:12:35;;;;;;;32.50;17.80;;;;;;;1.95;78.81;99400.48;108329;1258;94274;-72
2023/11/19 04:15:04;;;;;;;30.20;16.10;;;;;;;1.95;78.76;99396.48;108326;1257;94327;-71
2023/11/19 04:17:32;;;;;;;29.20;15.80;;;;;;;1.96;78.77;99390.30;108311;1256;111227;-72
2023/11/19 04:20:00;;;;;;;32.70;17.30;;;;;;;1.99;79.10;99390.92;108307;1257;95275;-71
2023/11/19 04:22:28;;;;;;;33.70;19.80;;;;;;;1.96;78.92;99392.95;108318;1257;107195;-72
2023/11/19 04:24:56;;;;;;;33.10;18.10;;;;;;;1.95;78.61;99401.52;108345;1257;94425;-71
2023/11/19 04:27:24;;;;;;;32.30;17.90;;;;;;;1.97;78.60;99405.15;108256;1256;94645;-71
2023/11/19 04:29:51;;;;;;;33.40;18.10;;;;;;;1.99;78.82;99401.59;108346;1257;109479;-72
2023/11/19 04:32:19;;;;;;;30.50;17.90;;;;;;;1.97;78.85;99400.61;108374;1256;95463;-71
2023/11/19 04:34:47;;;;;;;31.70;17.10;;;;;;;1.98;78.65;99395.85;108301;1256;108245;-71
2023/11/19 04:37:15;;;;;;;31.70;17.40;;;;;;;1.99;78.75;99388.14;108333;1257;94270;-72
2023/11/19 04:39:46;;;;;;;28.50;15.10;;;;;;;1.98;78.76;99387.98;108304;1257;94429;-72
2023/11/19 04:42:16;;;;;;;30.10;15.00;;;;;;;1.97;78.68;99385.23;108327;1257;108840;-71
2023/11/19 04:44:44;;;;;;;27.00;14.60;;;;;;;1.94;78.51;99386.17;108352;1257;95653;-72
2023/11/19 04:47:13;;;;;;;27.80;13.80;;;;;;;1.96;78.84;99374.40;108319;1256;107718;-71
2023/11/19 04:49:44;;;;;;;23.80;12.30;;;;;;;1.99;78.73;99367.84;108263;1256;94265;-71
2023/11/19 04:52:12;;;;;;;25.60;13.30;;;;;;;2.00;78.68;99360.98;108293;1258;94547;-71
2023/11/19 04:54:42;;;;;;;26.30;12.80;;;;;;;1.95;78.45;99360.59;108339;1256;109418;-72
2023/11/19 04:57:13;;;;;;;23.00;11.70;;;;;;;1.87;78.18;99362.09;108283;1257;95327;-72
2023/11/19 04:59:41;;;;;;;23.10;12.20;;;;;;;1.85;78.45;99361.45;108357;1256;107770;-71
2023/11/19 05:02:09;;;;;;;26.00;13.60;;;;;;;1.87;78.64;99363.64;108312;1257;94632;-71
2023/11/19 05:04:37;;;;;;;24.60;12.50;;;;;;;1.90;78.76;99358.13;108321;1257;94418;-72
2023/11/19 05:07:06;;;;;;;24.50;11.60;;;;;;;1.90;78.60;99349.04;108280;1257;111668;-71
2023/11/19 05:09:35;;;;;;;25.00;12.00;;;;;;;1.85;77.95;99341.33;108348;1257;95782;-71
2023/11/19 05:12:03;;;;;;;20.90;9.70;;;;;;;1.83;78.12;99338.62;108288;1258;107361;-71
2023/11/19 05:14:31;;;;;;;19.60;8.70;;;;;;;1.78;78.29;99331.27;108405;1256;94259;-71
2023/11/19 05:16:58;;;;;;;18.90;8.20;;;;;;;1.76;78.32;99321.02;108289;1256;95347;-71
2023/11/19 05:19:26;;;;;;;19.10;8.30;;;;;;;1.75;78.30;99308.78;108336;1257;109886;-72
2023/11/19 05:21:54;;;;;;;17.80;7.90;;;;;;;1.74;78.48;99297.45;108383;1256;95512;-71
2023/11/19 05:24:22;;;;;;;18.30;7.70;;;;;;;1.74;78.16;99293.25;108182;1256;107234;-72
2023/11/19 05:26:52;;;;;;;19.70;8.20;;;;;;;1.70;78.12;99290.23;108370;1257;94471;-72
2023/11/19 05:29:19;;;;;;;18.40;7.90;;;;;;;1.63;77.96;99283.13;108355;1256;94876;-71
2023/11/19 05:31:47;;;;;;;17.60;7.70;;;;;;;1.58;77.96;99286.27;108355;1256;109931;-70
2023/11/19 05:34:15;;;;;;;18.60;8.20;;;;;;;1.60;78.21;99278.69;108369;1257;95216;-69
2023/11/19 05:36:43;;;;;;;18.50;7.60;;;;;;;1.62;78.09;99277.91;108315;1256;107764;-69
2023/11/19 05:39:11;;;;;;;18.10;7.80;;;;;;;1.65;78.27;99270.98;108348;1257;94466;-69
2023/11/19 05:41:39;;;;;;;19.70;8.40;;;;;;;1.67;78.47;99266.93;108356;1256;94425;-72
2023/11/19 05:44:07;;;;;;;19.20;7.90;;;;;;;1.68;77.92;99265.13;108353;1257;109894;-72
2023/11/19 05:46:40;;;;;;;18.40;8.00;;;;;;;1.72;78.16;99267.45;108316;1256;95615;-72
2023/11/19 05:49:09;;;;;;;18.90;8.10;;;;;;;1.78;78.54;99259.74;108321;1257;107362;-72
2023/11/19 05:51:40;;;;;;;19.90;9.20;;;;;;;1.83;78.24;99265.36;108326;1256;94321;-72
2023/11/19 05:54:10;;;;;;;20.50;10.00;;;;;;;1.85;78.35;99262.64;108321;1257;94414;-72
2023/11/19 05:56:38;;;;;;;22.20;10.10;;;;;;;1.87;78.31;99255.41;108289;1256;109611;-72
2023/11/19 05:59:14;;;;;;;22.30;10.50;;;;;;;1.88;78.24;99265.88;108314;1257;95479;-72
2023/11/19 06:01:46;;;;;;;21.60;10.20;;;;;;;1.87;78.19;99274.98;108321;1257;107604;-73
2023/11/19 06:04:14;;;;;;;23.70;11.10;;;;;;;1.91;78.14;99273.98;108272;1256;94338;-73
2023/11/19 06:06:42;;;;;;;21.80;11.00;;;;;;;1.95;78.25;99276.29;108283;1256;94295;-72
2023/11/19 06:09:09;;;;;;;20.60;9.70;;;;;;;1.99;78.23;99272.31;108332;1257;109387;-72
2023/11/19 06:11:41;;;;;;;25.00;12.10;;;;;;;2.01;78.30;99266.85;108359;1257;95178;-71
2023/11/19 06:14:09;;;;;;;67.80;31.60;;;;;;;1.96;78.08;99268.92;108320;1257;107402;-71
2023/11/19 06:16:36;;;;;;;53.60;26.20;;;;;;;1.96;78.10;99269.64;108330;1257;94256;-72
2023/11/19 06:19:05;;;;;;;28.40;12.50;;;;;;;1.98;78.18;99267.97;108385;1256;94354;-72
2023/11/19 06:21:33;;;;;;;48.80;23.90;;;;;;;2.00;78.25;99272.66;108338;1257;109639;-72
2023/11/19 06:24:01;;;;;;;42.50;22.30;;;;;;;1.99;78.08;99271.10;108421;1257;94392;-71
2023/11/19 06:26:29;;;;;;;39.70;20.90;;;;;;;2.00;78.10;99275.45;108316;1259;107254;-72
2023/11/19 06:28:56;;;;;;;40.20;19.60;;;;;;;2.04;78.38;99275.14;108331;1257;94303;-72
2023/11/19 06:31:24;;;;;;;37.40;18.00;;;;;;;2.07;78.26;99269.23;108313;1257;94695;-73
2023/11/19 06:33:52;;;;;;;29.50;16.00;;;;;;;2.09;78.22;99265.00;108312;1257;109572;-72
2023/11/19 06:36:21;;;;;;;27.40;15.50;;;;;;;2.08;78.17;99248.73;108364;1257;96241;-72
2023/11/19 06:38:49;;;;;;;28.40;15.10;;;;;;;2.08;78.14;99244.02;108286;1257;107196;-72
2023/11/19 06:41:17;;;;;;;28.00;15.20;;;;;;;2.10;78.12;99246.41;108338;1257;94630;-72
2023/11/19 06:43:45;;;;;;;27.20;14.00;;;;;;;2.14;78.24;99258.00;108257;1256;94651;-72
2023/11/19 06:46:18;;;;;;;24.00;12.70;;;;;;;2.17;78.59;99258.92;108356;1257;109943;-73
2023/11/19 06:48:46;;;;;;;24.00;11.80;;;;;;;2.19;78.42;99246.80;108322;1257;94272;-72
2023/11/19 06:51:15;;;;;;;27.20;14.00;;;;;;;2.17;78.16;99241.09;108224;1257;107484;-72
2023/11/19 06:53:44;;;;;;;26.30;13.60;;;;;;;2.17;78.12;99239.33;108340;1256;94463;-73
2023/11/19 06:56:22;;;;;;;24.40;12.80;;;;;;;2.16;78.01;99236.56;108377;1256;94276;-73
2023/11/19 06:58:51;;;;;;;25.10;12.70;;;;;;;2.13;78.20;99238.59;108262;1257;110586;-73
2023/11/19 07:01:20;;;;;;;30.80;15.60;;;;;;;2.16;78.24;99246.05;108344;1257;95191;-73
2023/11/19 07:03:48;;;;;;;25.10;13.20;;;;;;;2.13;77.90;99247.34;108356;1257;107715;-73
2023/11/19 07:06:16;;;;;;;25.90;13.20;;;;;;;2.13;78.24;99245.60;108284;1256;94474;-73
2023/11/19 07:08:44;;;;;;;27.30;13.50;;;;;;;2.13;78.16;99246.30;108324;1257;94577;-72
2023/11/19 07:11:16;;;;;;;23.70;11.50;;;;;;;2.11;77.92;99249.34;108341;1257;109650;-73
2023/11/19 07:13:46;;;;;;;24.30;11.40;;;;;;;2.14;78.18;99249.95;108299;1257;96028;-73
2023/11/19 07:16:15;;;;;;;22.30;10.80;;;;;;;2.17;78.29;99254.20;108319;1257;107784;-73
2023/11/19 07:18:45;;;;;;;24.40;12.40;;;;;;;2.22;78.27;99269.95;108262;1257;95776;-74
2023/11/19 07:21:13;;;;;;;21.80;10.60;;;;;;;2.26;78.26;99275.77;108356;1257;94252;-73
2023/11/19 07:23:41;;;;;;;23.40;11.20;;;;;;;2.28;77.73;99266.77;108337;1256;108610;-72
2023/11/19 07:26:09;;;;;;;24.80;11.50;;;;;;;2.30;78.19;99268.96;108243;1256;95149;-74
2023/11/19 07:28:39;;;;;;;26.40;13.00;;;;;;;2.30;77.96;99262.86;108277;1257;107619;-74
2023/11/19 07:31:08;;;;;;;28.40;14.00;;;;;;;2.26;77.92;99268.23;108328;1256;94237;-73
2023/11/19 07:33:35;;;;;;;27.30;13.10;;;;;;;2.28;78.12;99265.38;108396;1256;94260;-73
2023/11/19 07:36:04;;;;;;;24.40;12.80;;;;;;;2.28;77.89;99264.70;108263;1257;109678;-73
2023/11/19 07:38:32;;;;;;;25.20;12.00;;;;;;;2.27;77.95;99266.65;108391;1256;95795;-73
2023/11/19 07:41:00;;;;;;;24.00;10.70;;;;;;;2.22;77.59;99267.15;108223;1257;107744;-74
2023/11/19 07:43:27;;;;;;;22.30;10.20;;;;;;;2.25;78.04;99264.95;108243;1256;94297;-73
2023/11/19 07:45:55;;;;;;;25.70;10.80;;;;;;;2.28;77.97;99264.83;108365;1257;94602;-73
2023/11/19 07:48:24;;;;;;;22.70;11.00;;;;;;;2.29;77.69;99258.88;108231;1256;109674;-74
2023/11/19 07:50:52;;;;;;;23.80;12.00;;;;;;;2.29;77.70;99247.67;108390;1257;95564;-73
2023/11/19 07:53:20;;;;;;;25.50;12.60;;;;;;;2.32;77.97;99239.14;108361;1256;107796;-74
2023/11/19 07:55:48;;;;;;;24.60;12.50;;;;;;;2.34;78.19;99229.98;108292;1257;95155;-73
2023/11/19 07:58:16;;;;;;;24.00;12.10;;;;;;;2.32;77.75;99227.41;108384;1257;94492;-73
2023/11/19 08:00:44;;;;;;;23.60;11.20;;;;;;;2.32;77.90;99219.39;108351;1257;110002;-73
2023/11/19 08:03:12;;;;;;;25.10;11.40;;;;;;;2.34;77.91;99212.48;108253;1257;96131;-76
2023/11/19 08:05:40;;;;;;;22.00;11.00;;;;;;;2.36;78.10;99210.13;108246;1258;107764;-74
2023/11/19 08:08:08;;;;;;;27.20;14.70;;;;;;;2.40;77.93;99211.91;108386;1256;94279;-74
2023/11/19 08:10:36;;;;;;;24.00;12.10;;;;;;;2.39;77.72;99213.36;108419;1256;94301;-74
2023/11/19 08:13:04;;;;;;;22.80;11.50;;;;;;;2.39;77.82;99204.79;108392;1256;109952;-74
2023/11/19 08:15:32;;;;;;;24.00;11.70;;;;;;;2.42;78.00;99200.31;108382;1256;94345;-74
2023/11/19 08:18:00;;;;;;;24.10;12.10;;;;;;;2.44;78.17;99199.01;108379;1256;107665;-74
2023/11/19 08:20:28;;;;;;;23.90;11.80;;;;;;;2.46;77.91;99195.25;108288;1257;94413;-79
2023/11/19 08:22:56;;;;;;;23.30;11.70;;;;;;;2.46;77.92;99190.17;108331;1256;94302;-76
2023/11/19 08:25:46;;;;;;;30.10;15.00;;;;;;;2.47;77.87;99185.75;108279;1256;109550;-77
2023/11/19 08:28:17;;;;;;;27.80;13.70;;;;;;;2.49;77.80;99179.55;108391;1256;95564;-74
2023/11/19 08:30:45;;;;;;;25.90;13.00;;;;;;;2.54;77.99;99171.66;108232;1256;105619;-75
2023/11/19 08:33:12;;;;;;;26.60;13.10;;;;;;;2.58;78.18;99168.20;108399;1256;94340;-74
2023/11/19 08:35:41;;;;;;;27.60;13.90;;;;;;;2.59;77.74;99157.98;108461;1256;94299;-74
2023/11/19 08:38:09;;;;;;;27.80;14.00;;;;;;;2.61;77.95;99148.63;108229;1256;110012;-73
2023/11/19 08:40:38;;;;;;;27.70;12.70;;;;;;;2.64;78.11;99136.45;108429;1256;95796;-73
2023/11/19 08:43:06;;;;;;;25.60;13.70;;;;;;;2.66;77.86;99125.66;108354;1256;107206;-73
2023/11/19 08:45:34;;;;;;;22.50;11.30;;;;;;;2.65;77.98;99126.23;108393;1256;94358;-74
2023/11/19 08:48:02;;;;;;;22.00;11.00;;;;;;;2.63;77.41;99127.55;108447;1256;94248;-73
2023/11/19 08:50:30;;;;;;;21.90;10.40;;;;;;;2.62;77.49;99121.29;108211;1256;109674;-73
2023/11/19 08:52:58;;;;;;;23.00;11.60;;;;;;;2.58;77.78;99116.88;108296;1256;95241;-74
2023/11/19 08:55:26;;;;;;;23.10;11.40;;;;;;;2.59;77.82;99119.47;108350;1256;105311;-73
2023/11/19 08:57:54;;;;;;;26.10;13.00;;;;;;;2.60;77.71;99110.53;108378;1256;94413;-73
2023/11/19 09:00:22;;;;;;;25.90;13.90;;;;;;;2.62;77.77;99109.89;108457;1256;94236;-73
2023/11/19 09:02:50;;;;;;;23.10;11.70;;;;;;;2.62;77.58;99102.73;108395;1256;109997;-73
2023/11/19 09:05:18;;;;;;;23.10;11.30;;;;;;;2.60;77.63;99099.30;108409;1256;94474;-73
2023/11/19 09:07:46;;;;;;;20.60;10.00;;;;;;;2.60;77.46;99091.60;108214;1256;107719;-75
2023/11/19 09:10:13;;;;;;;22.70;11.40;;;;;;;2.61;77.58;99088.59;108242;1256;94441;-73
2023/11/19 09:12:41;;;;;;;23.20;11.80;;;;;;;2.62;77.74;99090.11;108331;1256;95211;-73
2023/11/19 09:15:10;;;;;;;35.80;20.40;;;;;;;2.61;77.67;99088.60;108407;1256;110193;-75
2023/11/19 09:17:38;;;;;;;35.80;17.50;;;;;;;2.58;77.41;99085.38;108392;1256;96204;-74
2023/11/19 09:20:08;;;;;;;86.70;46.30;;;;;;;2.55;77.78;99081.30;108267;1256;108892;-75
2023/11/19 09:22:38;;;;;;;122.00;63.00;;;;;;;2.54;77.41;99075.90;108408;1256;94568;-77
2023/11/19 09:25:08;;;;;;;40.80;19.60;;;;;;;2.55;77.56;99082.17;108434;1256;94618;-75
2023/11/19 09:27:35;;;;;;;23.80;11.20;;;;;;;2.56;77.66;99082.14;108261;1256;109442;-77
2023/11/19 09:30:04;;;;;;;25.20;12.90;;;;;;;2.58;77.73;99086.09;108476;1256;94599;-74
2023/11/19 09:32:32;;;;;;;24.40;12.60;;;;;;;2.60;77.44;99086.02;108400;1256;108872;-77
2023/11/19 09:35:02;;;;;;;24.40;12.70;;;;;;;2.62;77.42;99091.34;108360;1256;94240;-78
2023/11/19 09:37:30;;;;;;;25.80;12.10;;;;;;;2.64;77.46;99091.80;108289;1256;94505;-76
2023/11/19 09:39:58;;;;;;;24.50;13.20;;;;;;;2.64;77.42;99089.33;108409;1256;109375;-74
2023/11/19 09:42:26;;;;;;;28.30;17.30;;;;;;;2.66;77.51;99083.29;108430;1256;94537;-76
2023/11/19 09:44:56;;;;;;;24.90;11.90;;;;;;;2.67;77.31;99087.63;108404;1256;107835;-77
2023/11/19 09:47:25;;;;;;;23.10;11.30;;;;;;;2.67;77.74;99087.09;108283;1256;94715;-75
2023/11/19 09:49:54;;;;;;;24.10;11.70;;;;;;;2.72;77.95;99075.04;108426;1256;94549;-75
2023/11/19 09:52:25;;;;;;;23.90;12.50;;;;;;;2.73;77.42;99070.42;108413;1257;110127;-77
2023/11/19 09:54:53;;;;;;;27.80;14.80;;;;;;;2.72;77.44;99061.72;108449;1256;95533;-75
2023/11/19 09:57:21;;;;;;;24.40;11.30;;;;;;;2.71;77.66;99060.86;108375;1256;107188;-75
2023/11/19 09:59:50;;;;;;;30.40;15.20;;;;;;;2.73;77.38;99054.67;108390;1256;95259;-76
2023/11/19 10:02:18;;;;;;;26.10;12.80;;;;;;;2.75;77.54;99055.45;108457;1256;94281;-75
2023/11/19 10:04:47;;;;;;;23.40;11.00;;;;;;;2.77;77.41;99052.40;108275;1256;110082;-76
2023/11/19 10:07:15;;;;;;;30.80;15.30;;;;;;;2.83;77.46;99048.64;108418;1256;95576;-75
2023/11/19 10:09:43;;;;;;;25.80;13.20;;;;;;;2.87;77.22;99044.65;108438;1256;107872;-76
2023/11/19 10:12:11;;;;;;;23.10;10.30;;;;;;;2.83;77.20;99034.98;108384;1256;94358;-74
2023/11/19 10:14:40;;;;;;;22.80;10.50;;;;;;;2.84;77.38;99028.84;108466;1256;94312;-75
2023/11/19 10:17:07;;;;;;;22.60;10.20;;;;;;;2.88;77.31;99028.47;108454;1256;109572;-74
2023/11/19 10:19:38;;;;;;;21.10;9.40;;;;;;;2.88;77.29;99021.80;108331;1257;95715;-74
2023/11/19 10:22:06;;;;;;;22.50;10.30;;;;;;;2.92;77.55;99010.62;108394;1256;105752;-76
2023/11/19 10:24:34;;;;;;;24.80;11.70;;;;;;;2.94;77.12;99006.14;108326;1256;94631;-74
2023/11/19 10:27:08;;;;;;;23.60;10.50;;;;;;;2.99;77.04;98997.20;108274;1256;94645;-76
2023/11/19 10:29:37;;;;;;;27.60;12.80;;;;;;;3.01;76.94;98987.46;108267;1257;109140;-76
2023/11/19 10:32:06;;;;;;;24.90;11.70;;;;;;;3.05;77.32;98980.83;108322;1256;96280;-76
2023/11/19 10:35:06;;;;;;;24.00;11.10;;;;;;;3.10;76.93;98970.98;108363;1256;107626;-75
2023/11/19 10:37:37;;;;;;;21.00;9.40;;;;;;;3.10;77.08;98965.86;108339;1256;94304;-77
2023/11/19 10:40:06;;;;;;;24.20;11.70;;;;;;;3.14;77.29;98956.77;108398;1256;94254;-76
2023/11/19 10:42:35;;;;;;;23.40;11.50;;;;;;;3.14;76.67;98949.58;108409;1256;109907;-76
2023/11/19 10:45:04;;;;;;;22.40;11.30;;;;;;;3.10;76.64;98945.92;108449;1256;95111;-76
2023/11/19 10:47:34;;;;;;;25.20;11.10;;;;;;;3.11;76.74;98935.52;108346;1260;107812;-79
2023/11/19 10:50:06;;;;;;;21.90;9.30;;;;;;;3.16;76.91;98930.96;108329;1260;94297;-84
2023/11/19 10:52:49;;;;;;;18.90;8.80;;;;;;;3.24;77.06;98921.48;108387;1256;94276;-84
2023/11/19 10:55:26;;;;;;;20.20;9.10;;;;;;;3.31;77.08;98918.15;108265;1256;109780;-77
2023/11/19 10:57:59;;;;;;;16.50;7.80;;;;;;;3.38;76.87;98918.21;108417;1256;96179;-75
2023/11/19 11:03:45;;;;;;;28.80;11.90;;;;;;;3.50;77.14;98903.13;102143;1299;635958;-75
2023/11/19 11:06:14;;;;;;;23.50;11.00;;;;;;;3.55;77.05;98905.34;105285;1262;94877;-75
2023/11/19 11:08:43;;;;;;;23.00;10.00;;;;;;;3.60;77.15;98903.73;105272;1257;94652;-75
2023/11/19 11:11:15;;;;;;;19.70;8.90;;;;;;;3.60;76.60;98897.04;105271;1260;106981;-75
2023/11/19 11:13:45;;;;;;;21.00;10.20;;;;;;;3.58;76.67;98892.75;105159;1257;95131;-75
2023/11/19 11:16:14;;;;;;;19.90;8.80;;;;;;;3.61;76.72;98890.35;104978;1261;204720;-75
2023/11/19 11:18:44;;;;;;;19.90;8.20;;;;;;;3.62;76.82;98882.61;105412;1254;94802;-76
2023/11/19 11:21:18;;;;;;;21.10;9.30;;;;;;;3.63;76.81;98886.42;105596;1254;94382;-74
2023/11/19 11:24:02;;;;;;;19.60;8.80;;;;;;;3.66;76.93;98878.20;105293;1257;106989;-75
2023/11/19 11:26:52;;;;;;;22.20;9.70;;;;;;;3.69;77.02;98872.27;105409;1254;95499;-76